sensor_id;sensor_type;location;lat;lon;timestamp;P1;durP1;ratioP1;P2;durP2;ratioP2
16531;SDS011;66872;63.142;14.482;2023-02-28T00:00:10;0.10;;;0.10;;
16531;SDS011;66872;63.142;14.482;2023-02-28T00:02:38;0.20;;;0.20;;
16531;SDS011;66872;63.142;14.482;2023-02-28T00:05:05;0.20;;;0.20;;
16531;SDS011;66872;63.142;14.482;2023-02-28T00:07:32;0.20;;;0.20;;
16531;SDS011;66872;63.142;14.482;2023-02-28T00:09:58;0.20;;;0.20;;
16531;SDS011;66872;63.142;14.482;2023-02-28T00:12:25;0.20;;;0.20;;
16531;SDS011;66872;63.142;14.482;2023-02-28T00:14:51;0.20;;;0.20;;
16531;SDS011;66872;63.142;14.482;2023-02-28T00:17:17;0.20;;;0.20;;
16531;SDS011;66872;63.142;14.482;2023-02-28T00:19:46;0.20;;;0.20;;
16531;SDS011;66872;63.142;14.482;2023-02-28T00:22:13;0.20;;;0.20;;
16531;SDS011;66872;63.142;14.482;2023-02-28T00:24:40;0.20;;;0.20;;
16531;SDS011;66872;63.142;14.482;2023-02-28T00:27:06;0.20;;;0.20;;
16531;SDS011;66872;63.142;14.482;2023-02-28T00:29:32;0.30;;;0.30;;
16531;SDS011;66872;63.142;14.482;2023-02-28T00:31:58;0.33;;;0.27;;
16531;SDS011;66872;63.142;14.482;2023-02-28T00:34:23;0.30;;;0.30;;
16531;SDS011;66872;63.142;14.482;2023-02-28T00:36:49;0.20;;;0.20;;
16531;SDS011;66872;63.142;14.482;2023-02-28T00:39:15;0.30;;;0.30;;
16531;SDS011;66872;63.142;14.482;2023-02-28T00:41:41;0.10;;;0.10;;
16531;SDS011;66872;63.142;14.482;2023-02-28T00:44:07;0.20;;;0.20;;
16531;SDS011;66872;63.142;14.482;2023-02-28T00:46:33;0.20;;;0.20;;
16531;SDS011;66872;63.142;14.482;2023-02-28T00:48:58;0.20;;;0.20;;
16531;SDS011;66872;63.142;14.482;2023-02-28T00:51:24;0.30;;;0.30;;
16531;SDS011;66872;63.142;14.482;2023-02-28T00:53:50;0.20;;;0.20;;
16531;SDS011;66872;63.142;14.482;2023-02-28T00:56:16;0.20;;;0.20;;
16531;SDS011;66872;63.142;14.482;2023-02-28T00:58:41;0.23;;;0.23;;
16531;SDS011;66872;63.142;14.482;2023-02-28T01:01:07;0.20;;;0.20;;
16531;SDS011;66872;63.142;14.482;2023-02-28T01:03:33;0.17;;;0.17;;
16531;SDS011;66872;63.142;14.482;2023-02-28T01:05:59;0.33;;;0.33;;
16531;SDS011;66872;63.142;14.482;2023-02-28T01:08:25;0.20;;;0.20;;
16531;SDS011;66872;63.142;14.482;2023-02-28T01:10:51;0.20;;;0.20;;
16531;SDS011;66872;63.142;14.482;2023-02-28T01:13:17;0.30;;;0.30;;
16531;SDS011;66872;63.142;14.482;2023-02-28T01:15:45;0.20;;;0.20;;
16531;SDS011;66872;63.142;14.482;2023-02-28T01:18:16;0.20;;;0.20;;
16531;SDS011;66872;63.142;14.482;2023-02-28T01:20:42;0.30;;;0.30;;
16531;SDS011;66872;63.142;14.482;2023-02-28T01:23:08;0.20;;;0.20;;
16531;SDS011;66872;63.142;14.482;2023-02-28T01:25:34;0.30;;;0.30;;
16531;SDS011;66872;63.142;14.482;2023-02-28T01:28:01;0.20;;;0.20;;
16531;SDS011;66872;63.142;14.482;2023-02-28T01:30:26;0.20;;;0.20;;
16531;SDS011;66872;63.142;14.482;2023-02-28T01:32:52;0.20;;;0.20;;
16531;SDS011;66872;63.142;14.482;2023-02-28T01:35:18;0.20;;;0.20;;
16531;SDS011;66872;63.142;14.482;2023-02-28T01:37:44;0.20;;;0.20;;
16531;SDS011;66872;63.142;14.482;2023-02-28T01:40:11;0.20;;;0.20;;
16531;SDS011;66872;63.142;14.482;2023-02-28T01:42:38;0.20;;;0.20;;
16531;SDS011;66872;63.142;14.482;2023-02-28T01:45:23;0.30;;;0.30;;
16531;SDS011;66872;63.142;14.482;2023-02-28T01:48:03;0.30;;;0.30;;
16531;SDS011;66872;63.142;14.482;2023-02-28T01:50:34;0.20;;;0.20;;
16531;SDS011;66872;63.142;14.482;2023-02-28T01:53:04;0.20;;;0.20;;
16531;SDS011;66872;63.142;14.482;2023-02-28T01:55:32;0.20;;;0.20;;
16531;SDS011;66872;63.142;14.482;2023-02-28T01:58:00;0.10;;;0.10;;
16531;SDS011;66872;63.142;14.482;2023-02-28T02:00:28;0.10;;;0.10;;
16531;SDS011;66872;63.142;14.482;2023-02-28T02:02:59;0.30;;;0.30;;
16531;SDS011;66872;63.142;14.482;2023-02-28T02:05:29;0.20;;;0.20;;
16531;SDS011;66872;63.142;14.482;2023-02-28T02:07:56;0.20;;;0.20;;
16531;SDS011;66872;63.142;14.482;2023-02-28T02:10:29;0.20;;;0.20;;
16531;SDS011;66872;63.142;14.482;2023-02-28T02:29:35;0.27;;;0.27;;
16531;SDS011;66872;63.142;14.482;2023-02-28T02:35:00;0.10;;;0.10;;
16531;SDS011;66872;63.142;14.482;2023-02-28T02:37:48;0.10;;;0.10;;
16531;SDS011;66872;63.142;14.482;2023-02-28T02:40:42;0.10;;;0.10;;
16531;SDS011;66872;63.142;14.482;2023-02-28T02:43:16;0.20;;;0.20;;
16531;SDS011;66872;63.142;14.482;2023-02-28T02:45:45;0.30;;;0.30;;
16531;SDS011;66872;63.142;14.482;2023-02-28T02:48:15;0.30;;;0.30;;
16531;SDS011;66872;63.142;14.482;2023-02-28T02:50:50;0.20;;;0.20;;
16531;SDS011;66872;63.142;14.482;2023-02-28T02:53:21;0.20;;;0.20;;
16531;SDS011;66872;63.142;14.482;2023-02-28T02:55:53;0.30;;;0.30;;
16531;SDS011;66872;63.142;14.482;2023-02-28T02:58:22;0.20;;;0.20;;
16531;SDS011;66872;63.142;14.482;2023-02-28T03:00:56;0.20;;;0.20;;
16531;SDS011;66872;63.142;14.482;2023-02-28T03:03:25;0.20;;;0.20;;
16531;SDS011;66872;63.142;14.482;2023-02-28T03:05:55;0.20;;;0.20;;
16531;SDS011;66872;63.142;14.482;2023-02-28T03:08:23;0.10;;;0.10;;
16531;SDS011;66872;63.142;14.482;2023-02-28T03:10:50;0.20;;;0.20;;
16531;SDS011;66872;63.142;14.482;2023-02-28T03:19:22;0.20;;;0.20;;
16531;SDS011;66872;63.142;14.482;2023-02-28T03:27:30;0.10;;;0.10;;
16531;SDS011;66872;63.142;14.482;2023-02-28T03:30:05;0.20;;;0.20;;
16531;SDS011;66872;63.142;14.482;2023-02-28T03:35:24;0.20;;;0.20;;
16531;SDS011;66872;63.142;14.482;2023-02-28T03:38:09;0.20;;;0.20;;
16531;SDS011;66872;63.142;14.482;2023-02-28T03:40:41;0.30;;;0.30;;
16531;SDS011;66872;63.142;14.482;2023-02-28T03:43:13;0.20;;;0.20;;
16531;SDS011;66872;63.142;14.482;2023-02-28T03:45:52;0.20;;;0.20;;
16531;SDS011;66872;63.142;14.482;2023-02-28T03:48:28;0.20;;;0.20;;
16531;SDS011;66872;63.142;14.482;2023-02-28T03:51:00;0.27;;;0.27;;
16531;SDS011;66872;63.142;14.482;2023-02-28T03:53:31;0.20;;;0.20;;
16531;SDS011;66872;63.142;14.482;2023-02-28T03:56:11;0.20;;;0.20;;
16531;SDS011;66872;63.142;14.482;2023-02-28T03:58:49;0.20;;;0.20;;
16531;SDS011;66872;63.142;14.482;2023-02-28T04:03:49;0.10;;;0.10;;
16531;SDS011;66872;63.142;14.482;2023-02-28T04:06:16;0.20;;;0.20;;
16531;SDS011;66872;63.142;14.482;2023-02-28T04:08:44;0.20;;;0.20;;
16531;SDS011;66872;63.142;14.482;2023-02-28T04:11:23;0.20;;;0.20;;
16531;SDS011;66872;63.142;14.482;2023-02-28T04:13:57;0.13;;;0.13;;
16531;SDS011;66872;63.142;14.482;2023-02-28T04:16:22;0.17;;;0.17;;
16531;SDS011;66872;63.142;14.482;2023-02-28T04:18:48;0.20;;;0.20;;
16531;SDS011;66872;63.142;14.482;2023-02-28T04:21:14;0.20;;;0.20;;
16531;SDS011;66872;63.142;14.482;2023-02-28T04:23:39;0.20;;;0.20;;
16531;SDS011;66872;63.142;14.482;2023-02-28T04:26:05;0.10;;;0.10;;
16531;SDS011;66872;63.142;14.482;2023-02-28T04:28:32;0.20;;;0.20;;
16531;SDS011;66872;63.142;14.482;2023-02-28T04:30:59;0.30;;;0.30;;
16531;SDS011;66872;63.142;14.482;2023-02-28T04:33:27;0.20;;;0.20;;
16531;SDS011;66872;63.142;14.482;2023-02-28T04:36:02;0.20;;;0.20;;
16531;SDS011;66872;63.142;14.482;2023-02-28T04:38:33;0.23;;;0.23;;
16531;SDS011;66872;63.142;14.482;2023-02-28T04:41:03;0.10;;;0.10;;
16531;SDS011;66872;63.142;14.482;2023-02-28T04:43:30;0.10;;;0.10;;
16531;SDS011;66872;63.142;14.482;2023-02-28T04:45:57;0.20;;;0.20;;
16531;SDS011;66872;63.142;14.482;2023-02-28T04:48:24;0.20;;;0.20;;
16531;SDS011;66872;63.142;14.482;2023-02-28T04:50:51;0.20;;;0.20;;
16531;SDS011;66872;63.142;14.482;2023-02-28T04:53:17;0.20;;;0.20;;
16531;SDS011;66872;63.142;14.482;2023-02-28T04:55:43;0.10;;;0.10;;
16531;SDS011;66872;63.142;14.482;2023-02-28T04:58:09;0.20;;;0.20;;
16531;SDS011;66872;63.142;14.482;2023-02-28T05:00:35;0.20;;;0.20;;
16531;SDS011;66872;63.142;14.482;2023-02-28T05:03:01;0.20;;;0.20;;
16531;SDS011;66872;63.142;14.482;2023-02-28T05:05:27;0.20;;;0.20;;
16531;SDS011;66872;63.142;14.482;2023-02-28T05:07:53;0.20;;;0.20;;
16531;SDS011;66872;63.142;14.482;2023-02-28T05:10:20;0.20;;;0.20;;
16531;SDS011;66872;63.142;14.482;2023-02-28T05:12:46;0.20;;;0.20;;
16531;SDS011;66872;63.142;14.482;2023-02-28T05:15:13;0.20;;;0.20;;
16531;SDS011;66872;63.142;14.482;2023-02-28T05:17:39;0.20;;;0.20;;
16531;SDS011;66872;63.142;14.482;2023-02-28T05:20:06;0.30;;;0.30;;
16531;SDS011;66872;63.142;14.482;2023-02-28T05:22:32;0.10;;;0.10;;
16531;SDS011;66872;63.142;14.482;2023-02-28T05:24:57;0.10;;;0.10;;
16531;SDS011;66872;63.142;14.482;2023-02-28T05:27:23;0.20;;;0.20;;
16531;SDS011;66872;63.142;14.482;2023-02-28T05:29:49;0.20;;;0.20;;
16531;SDS011;66872;63.142;14.482;2023-02-28T05:32:15;0.10;;;0.10;;
16531;SDS011;66872;63.142;14.482;2023-02-28T05:34:41;0.20;;;0.20;;
16531;SDS011;66872;63.142;14.482;2023-02-28T05:37:16;0.20;;;0.20;;
16531;SDS011;66872;63.142;14.482;2023-02-28T05:39:42;0.20;;;0.20;;
16531;SDS011;66872;63.142;14.482;2023-02-28T05:42:07;0.20;;;0.20;;
16531;SDS011;66872;63.142;14.482;2023-02-28T05:44:34;0.20;;;0.20;;
16531;SDS011;66872;63.142;14.482;2023-02-28T05:47:00;0.30;;;0.27;;
16531;SDS011;66872;63.142;14.482;2023-02-28T05:49:26;0.20;;;0.20;;
16531;SDS011;66872;63.142;14.482;2023-02-28T05:51:52;0.20;;;0.20;;
16531;SDS011;66872;63.142;14.482;2023-02-28T05:54:18;0.20;;;0.20;;
16531;SDS011;66872;63.142;14.482;2023-02-28T05:56:43;0.30;;;0.30;;
16531;SDS011;66872;63.142;14.482;2023-02-28T05:59:11;0.20;;;0.20;;
16531;SDS011;66872;63.142;14.482;2023-02-28T06:01:38;0.20;;;0.20;;
16531;SDS011;66872;63.142;14.482;2023-02-28T06:04:07;0.10;;;0.10;;
16531;SDS011;66872;63.142;14.482;2023-02-28T06:06:35;0.20;;;0.20;;
16531;SDS011;66872;63.142;14.482;2023-02-28T06:09:02;0.13;;;0.13;;
16531;SDS011;66872;63.142;14.482;2023-02-28T06:11:31;0.20;;;0.20;;
16531;SDS011;66872;63.142;14.482;2023-02-28T06:13:57;0.20;;;0.20;;
16531;SDS011;66872;63.142;14.482;2023-02-28T06:16:25;0.40;;;0.40;;
16531;SDS011;66872;63.142;14.482;2023-02-28T06:18:52;0.30;;;0.30;;
16531;SDS011;66872;63.142;14.482;2023-02-28T06:21:21;0.37;;;0.37;;
16531;SDS011;66872;63.142;14.482;2023-02-28T06:23:47;0.20;;;0.20;;
16531;SDS011;66872;63.142;14.482;2023-02-28T06:26:13;0.20;;;0.20;;
16531;SDS011;66872;63.142;14.482;2023-02-28T06:28:38;0.20;;;0.20;;
16531;SDS011;66872;63.142;14.482;2023-02-28T06:31:05;0.20;;;0.20;;
16531;SDS011;66872;63.142;14.482;2023-02-28T06:33:36;0.23;;;0.23;;
16531;SDS011;66872;63.142;14.482;2023-02-28T06:36:03;0.20;;;0.20;;
16531;SDS011;66872;63.142;14.482;2023-02-28T06:38:29;0.20;;;0.20;;
16531;SDS011;66872;63.142;14.482;2023-02-28T06:40:56;0.20;;;0.20;;
16531;SDS011;66872;63.142;14.482;2023-02-28T06:43:22;0.20;;;0.20;;
16531;SDS011;66872;63.142;14.482;2023-02-28T06:45:49;0.30;;;0.30;;
16531;SDS011;66872;63.142;14.482;2023-02-28T06:48:15;0.27;;;0.27;;
16531;SDS011;66872;63.142;14.482;2023-02-28T06:50:41;0.20;;;0.20;;
16531;SDS011;66872;63.142;14.482;2023-02-28T06:53:06;0.50;;;0.30;;
16531;SDS011;66872;63.142;14.482;2023-02-28T06:55:32;0.20;;;0.20;;
16531;SDS011;66872;63.142;14.482;2023-02-28T06:57:58;0.30;;;0.30;;
16531;SDS011;66872;63.142;14.482;2023-02-28T07:00:24;0.20;;;0.20;;
16531;SDS011;66872;63.142;14.482;2023-02-28T07:02:50;0.23;;;0.23;;
16531;SDS011;66872;63.142;14.482;2023-02-28T07:05:15;0.33;;;0.33;;
16531;SDS011;66872;63.142;14.482;2023-02-28T07:07:41;0.20;;;0.20;;
16531;SDS011;66872;63.142;14.482;2023-02-28T07:10:12;0.30;;;0.30;;
16531;SDS011;66872;63.142;14.482;2023-02-28T07:12:41;0.10;;;0.10;;
16531;SDS011;66872;63.142;14.482;2023-02-28T07:15:08;0.20;;;0.20;;
16531;SDS011;66872;63.142;14.482;2023-02-28T07:17:34;0.30;;;0.30;;
16531;SDS011;66872;63.142;14.482;2023-02-28T07:20:00;0.10;;;0.10;;
16531;SDS011;66872;63.142;14.482;2023-02-28T07:22:26;0.20;;;0.20;;
16531;SDS011;66872;63.142;14.482;2023-02-28T07:24:53;0.20;;;0.20;;
16531;SDS011;66872;63.142;14.482;2023-02-28T07:27:19;0.30;;;0.30;;
16531;SDS011;66872;63.142;14.482;2023-02-28T07:29:50;0.20;;;0.20;;
16531;SDS011;66872;63.142;14.482;2023-02-28T07:32:17;0.27;;;0.27;;
16531;SDS011;66872;63.142;14.482;2023-02-28T07:34:43;0.20;;;0.20;;
16531;SDS011;66872;63.142;14.482;2023-02-28T07:37:10;0.20;;;0.20;;
16531;SDS011;66872;63.142;14.482;2023-02-28T07:39:35;0.13;;;0.13;;
16531;SDS011;66872;63.142;14.482;2023-02-28T07:42:05;0.30;;;0.30;;
16531;SDS011;66872;63.142;14.482;2023-02-28T07:44:31;0.20;;;0.20;;
16531;SDS011;66872;63.142;14.482;2023-02-28T07:46:57;0.20;;;0.20;;
16531;SDS011;66872;63.142;14.482;2023-02-28T07:49:23;0.23;;;0.23;;
16531;SDS011;66872;63.142;14.482;2023-02-28T07:51:49;0.20;;;0.20;;
16531;SDS011;66872;63.142;14.482;2023-02-28T07:54:14;0.30;;;0.30;;
16531;SDS011;66872;63.142;14.482;2023-02-28T07:56:40;0.43;;;0.43;;
16531;SDS011;66872;63.142;14.482;2023-02-28T07:59:06;0.30;;;0.30;;
16531;SDS011;66872;63.142;14.482;2023-02-28T08:01:31;0.20;;;0.20;;
16531;SDS011;66872;63.142;14.482;2023-02-28T08:03:57;0.30;;;0.30;;
16531;SDS011;66872;63.142;14.482;2023-02-28T08:06:24;0.20;;;0.20;;
16531;SDS011;66872;63.142;14.482;2023-02-28T08:08:51;0.20;;;0.20;;
16531;SDS011;66872;63.142;14.482;2023-02-28T08:11:18;0.20;;;0.20;;
16531;SDS011;66872;63.142;14.482;2023-02-28T08:13:44;0.17;;;0.17;;
16531;SDS011;66872;63.142;14.482;2023-02-28T08:16:11;0.30;;;0.20;;
16531;SDS011;66872;63.142;14.482;2023-02-28T08:18:39;0.20;;;0.20;;
16531;SDS011;66872;63.142;14.482;2023-02-28T08:21:08;0.27;;;0.27;;
16531;SDS011;66872;63.142;14.482;2023-02-28T08:23:35;0.20;;;0.20;;
16531;SDS011;66872;63.142;14.482;2023-02-28T08:26:01;0.30;;;0.30;;
16531;SDS011;66872;63.142;14.482;2023-02-28T08:28:28;0.30;;;0.30;;
16531;SDS011;66872;63.142;14.482;2023-02-28T08:30:54;0.30;;;0.30;;
16531;SDS011;66872;63.142;14.482;2023-02-28T08:33:20;0.13;;;0.13;;
16531;SDS011;66872;63.142;14.482;2023-02-28T08:35:47;0.10;;;0.10;;
16531;SDS011;66872;63.142;14.482;2023-02-28T08:38:13;0.30;;;0.30;;
16531;SDS011;66872;63.142;14.482;2023-02-28T08:40:39;0.30;;;0.30;;
16531;SDS011;66872;63.142;14.482;2023-02-28T08:43:05;0.30;;;0.30;;
16531;SDS011;66872;63.142;14.482;2023-02-28T08:45:31;0.20;;;0.20;;
16531;SDS011;66872;63.142;14.482;2023-02-28T08:47:56;0.30;;;0.30;;
16531;SDS011;66872;63.142;14.482;2023-02-28T08:50:22;0.20;;;0.20;;
16531;SDS011;66872;63.142;14.482;2023-02-28T08:52:48;0.10;;;0.10;;
16531;SDS011;66872;63.142;14.482;2023-02-28T08:55:14;0.27;;;0.27;;
16531;SDS011;66872;63.142;14.482;2023-02-28T08:57:40;0.20;;;0.20;;
16531;SDS011;66872;63.142;14.482;2023-02-28T09:00:06;0.23;;;0.23;;
16531;SDS011;66872;63.142;14.482;2023-02-28T09:02:33;0.20;;;0.20;;
16531;SDS011;66872;63.142;14.482;2023-02-28T09:04:59;0.20;;;0.20;;
16531;SDS011;66872;63.142;14.482;2023-02-28T09:07:25;0.20;;;0.20;;
16531;SDS011;66872;63.142;14.482;2023-02-28T09:09:51;0.10;;;0.10;;
16531;SDS011;66872;63.142;14.482;2023-02-28T09:12:23;0.20;;;0.20;;
16531;SDS011;66872;63.142;14.482;2023-02-28T09:14:50;0.17;;;0.17;;
16531;SDS011;66872;63.142;14.482;2023-02-28T09:17:17;0.20;;;0.20;;
16531;SDS011;66872;63.142;14.482;2023-02-28T09:19:43;0.10;;;0.10;;
16531;SDS011;66872;63.142;14.482;2023-02-28T09:22:09;0.20;;;0.20;;
16531;SDS011;66872;63.142;14.482;2023-02-28T09:24:38;0.20;;;0.20;;
16531;SDS011;66872;63.142;14.482;2023-02-28T09:27:05;0.30;;;0.30;;
16531;SDS011;66872;63.142;14.482;2023-02-28T09:29:32;0.30;;;0.30;;
16531;SDS011;66872;63.142;14.482;2023-02-28T09:31:59;0.37;;;0.37;;
16531;SDS011;66872;63.142;14.482;2023-02-28T09:34:26;0.20;;;0.20;;
16531;SDS011;66872;63.142;14.482;2023-02-28T09:36:52;0.30;;;0.30;;
16531;SDS011;66872;63.142;14.482;2023-02-28T09:39:20;0.20;;;0.20;;
16531;SDS011;66872;63.142;14.482;2023-02-28T09:41:47;0.30;;;0.30;;
16531;SDS011;66872;63.142;14.482;2023-02-28T09:46:48;0.20;;;0.20;;
16531;SDS011;66872;63.142;14.482;2023-02-28T09:49:19;0.27;;;0.27;;
16531;SDS011;66872;63.142;14.482;2023-02-28T09:52:15;0.30;;;0.30;;
16531;SDS011;66872;63.142;14.482;2023-02-28T09:54:44;0.20;;;0.20;;
16531;SDS011;66872;63.142;14.482;2023-02-28T09:57:17;0.20;;;0.20;;
16531;SDS011;66872;63.142;14.482;2023-02-28T10:05:16;0.33;;;0.33;;
16531;SDS011;66872;63.142;14.482;2023-02-28T10:08:08;0.20;;;0.20;;
16531;SDS011;66872;63.142;14.482;2023-02-28T10:10:43;0.30;;;0.30;;
16531;SDS011;66872;63.142;14.482;2023-02-28T10:13:21;0.20;;;0.20;;
16531;SDS011;66872;63.142;14.482;2023-02-28T10:15:49;0.13;;;0.13;;
16531;SDS011;66872;63.142;14.482;2023-02-28T10:18:20;0.20;;;0.20;;
16531;SDS011;66872;63.142;14.482;2023-02-28T10:20:49;0.20;;;0.20;;
16531;SDS011;66872;63.142;14.482;2023-02-28T10:23:20;0.20;;;0.20;;
16531;SDS011;66872;63.142;14.482;2023-02-28T10:26:13;0.13;;;0.13;;
16531;SDS011;66872;63.142;14.482;2023-02-28T10:28:41;0.40;;;0.40;;
16531;SDS011;66872;63.142;14.482;2023-02-28T10:31:10;0.30;;;0.30;;
16531;SDS011;66872;63.142;14.482;2023-02-28T10:33:41;0.20;;;0.20;;
16531;SDS011;66872;63.142;14.482;2023-02-28T10:36:08;0.20;;;0.20;;
16531;SDS011;66872;63.142;14.482;2023-02-28T10:38:39;0.20;;;0.20;;
16531;SDS011;66872;63.142;14.482;2023-02-28T10:41:07;0.20;;;0.20;;
16531;SDS011;66872;63.142;14.482;2023-02-28T10:43:35;0.20;;;0.20;;
16531;SDS011;66872;63.142;14.482;2023-02-28T10:51:14;0.20;;;0.20;;
16531;SDS011;66872;63.142;14.482;2023-02-28T10:53:45;0.30;;;0.30;;
16531;SDS011;66872;63.142;14.482;2023-02-28T10:56:18;0.20;;;0.20;;
16531;SDS011;66872;63.142;14.482;2023-02-28T11:03:47;0.20;;;0.20;;
16531;SDS011;66872;63.142;14.482;2023-02-28T11:06:15;0.40;;;0.40;;
16531;SDS011;66872;63.142;14.482;2023-02-28T11:08:59;0.20;;;0.20;;
16531;SDS011;66872;63.142;14.482;2023-02-28T11:11:40;0.20;;;0.20;;
16531;SDS011;66872;63.142;14.482;2023-02-28T11:14:16;0.40;;;0.40;;
16531;SDS011;66872;63.142;14.482;2023-02-28T11:16:46;0.37;;;0.37;;
16531;SDS011;66872;63.142;14.482;2023-02-28T11:19:18;0.20;;;0.20;;
16531;SDS011;66872;63.142;14.482;2023-02-28T11:21:57;0.20;;;0.20;;
16531;SDS011;66872;63.142;14.482;2023-02-28T11:24:30;0.30;;;0.30;;
16531;SDS011;66872;63.142;14.482;2023-02-28T11:27:00;0.23;;;0.23;;
16531;SDS011;66872;63.142;14.482;2023-02-28T11:34:37;0.17;;;0.17;;
16531;SDS011;66872;63.142;14.482;2023-02-28T11:37:03;0.40;;;0.40;;
16531;SDS011;66872;63.142;14.482;2023-02-28T11:39:35;0.30;;;0.30;;
16531;SDS011;66872;63.142;14.482;2023-02-28T11:47:30;0.50;;;0.50;;
16531;SDS011;66872;63.142;14.482;2023-02-28T11:52:56;0.33;;;0.33;;
16531;SDS011;66872;63.142;14.482;2023-02-28T12:04:25;0.40;;;0.40;;
16531;SDS011;66872;63.142;14.482;2023-02-28T12:09:57;0.30;;;0.30;;
16531;SDS011;66872;63.142;14.482;2023-02-28T12:23:29;0.30;;;0.30;;
16531;SDS011;66872;63.142;14.482;2023-02-28T12:29:46;0.50;;;0.43;;
16531;SDS011;66872;63.142;14.482;2023-02-28T12:31:54;0.30;;;0.30;;
16531;SDS011;66872;63.142;14.482;2023-02-28T12:34:35;0.40;;;0.40;;
16531;SDS011;66872;63.142;14.482;2023-02-28T12:37:09;0.40;;;0.40;;
16531;SDS011;66872;63.142;14.482;2023-02-28T12:39:49;0.47;;;0.47;;
16531;SDS011;66872;63.142;14.482;2023-02-28T12:43:03;0.40;;;0.40;;
16531;SDS011;66872;63.142;14.482;2023-02-28T12:45:31;0.73;;;0.70;;
16531;SDS011;66872;63.142;14.482;2023-02-28T12:48:13;0.40;;;0.40;;
16531;SDS011;66872;63.142;14.482;2023-02-28T12:50:44;0.60;;;0.60;;
16531;SDS011;66872;63.142;14.482;2023-02-28T12:53:28;0.67;;;0.60;;
16531;SDS011;66872;63.142;14.482;2023-02-28T12:56:19;0.33;;;0.33;;
16531;SDS011;66872;63.142;14.482;2023-02-28T12:58:49;0.70;;;0.70;;
16531;SDS011;66872;63.142;14.482;2023-02-28T13:07:35;0.50;;;0.50;;
16531;SDS011;66872;63.142;14.482;2023-02-28T13:09:59;1.43;;;0.60;;
16531;SDS011;66872;63.142;14.482;2023-02-28T13:12:27;0.60;;;0.60;;
16531;SDS011;66872;63.142;14.482;2023-02-28T13:15:27;0.40;;;0.40;;
16531;SDS011;66872;63.142;14.482;2023-02-28T13:17:50;0.50;;;0.50;;
16531;SDS011;66872;63.142;14.482;2023-02-28T13:20:23;0.70;;;0.63;;
16531;SDS011;66872;63.142;14.482;2023-02-28T13:22:52;0.53;;;0.53;;
16531;SDS011;66872;63.142;14.482;2023-02-28T13:27:48;0.60;;;0.60;;
16531;SDS011;66872;63.142;14.482;2023-02-28T13:38:44;1.53;;;0.93;;
16531;SDS011;66872;63.142;14.482;2023-02-28T13:44:16;0.77;;;0.60;;
16531;SDS011;66872;63.142;14.482;2023-02-28T14:00:36;1.37;;;1.03;;
16531;SDS011;66872;63.142;14.482;2023-02-28T14:06:07;1.27;;;0.93;;
16531;SDS011;66872;63.142;14.482;2023-02-28T14:08:33;0.63;;;0.60;;
16531;SDS011;66872;63.142;14.482;2023-02-28T14:11:06;1.10;;;1.00;;
16531;SDS011;66872;63.142;14.482;2023-02-28T14:13:48;1.27;;;0.70;;
16531;SDS011;66872;63.142;14.482;2023-02-28T14:16:20;0.77;;;0.77;;
16531;SDS011;66872;63.142;14.482;2023-02-28T14:21:23;1.93;;;1.00;;
16531;SDS011;66872;63.142;14.482;2023-02-28T14:24:02;0.70;;;0.70;;
16531;SDS011;66872;63.142;14.482;2023-02-28T14:26:56;0.90;;;0.83;;
16531;SDS011;66872;63.142;14.482;2023-02-28T14:32:51;1.23;;;0.83;;
16531;SDS011;66872;63.142;14.482;2023-02-28T14:37:51;0.70;;;0.70;;
16531;SDS011;66872;63.142;14.482;2023-02-28T14:42:59;1.33;;;0.90;;
16531;SDS011;66872;63.142;14.482;2023-02-28T14:45:30;1.30;;;1.00;;
16531;SDS011;66872;63.142;14.482;2023-02-28T14:47:58;1.60;;;0.90;;
16531;SDS011;66872;63.142;14.482;2023-02-28T14:51:08;0.80;;;0.60;;
16531;SDS011;66872;63.142;14.482;2023-02-28T14:53:18;1.17;;;0.80;;
16531;SDS011;66872;63.142;14.482;2023-02-28T14:55:46;1.27;;;1.03;;
16531;SDS011;66872;63.142;14.482;2023-02-28T14:58:20;1.20;;;0.83;;
16531;SDS011;66872;63.142;14.482;2023-02-28T15:00:58;1.60;;;0.97;;
16531;SDS011;66872;63.142;14.482;2023-02-28T15:03:32;1.50;;;1.00;;
16531;SDS011;66872;63.142;14.482;2023-02-28T15:06:01;0.57;;;0.57;;
16531;SDS011;66872;63.142;14.482;2023-02-28T15:08:37;1.80;;;0.90;;
16531;SDS011;66872;63.142;14.482;2023-02-28T15:11:13;1.37;;;1.00;;
16531;SDS011;66872;63.142;14.482;2023-02-28T15:13:48;1.43;;;1.00;;
16531;SDS011;66872;63.142;14.482;2023-02-28T15:16:17;0.70;;;0.53;;
16531;SDS011;66872;63.142;14.482;2023-02-28T15:18:47;0.90;;;0.80;;
16531;SDS011;66872;63.142;14.482;2023-02-28T15:21:43;1.80;;;1.00;;
16531;SDS011;66872;63.142;14.482;2023-02-28T15:24:17;0.83;;;0.83;;
16531;SDS011;66872;63.142;14.482;2023-02-28T15:27:10;1.07;;;0.80;;
16531;SDS011;66872;63.142;14.482;2023-02-28T15:29:45;1.80;;;1.10;;
16531;SDS011;66872;63.142;14.482;2023-02-28T15:32:32;1.53;;;1.00;;
16531;SDS011;66872;63.142;14.482;2023-02-28T15:35:17;1.23;;;0.90;;
16531;SDS011;66872;63.142;14.482;2023-02-28T15:37:56;2.27;;;1.10;;
16531;SDS011;66872;63.142;14.482;2023-02-28T15:40:36;1.83;;;0.93;;
16531;SDS011;66872;63.142;14.482;2023-02-28T15:43:16;1.07;;;0.87;;
16531;SDS011;66872;63.142;14.482;2023-02-28T15:45:58;1.70;;;1.00;;
16531;SDS011;66872;63.142;14.482;2023-02-28T15:56:26;0.83;;;0.80;;
16531;SDS011;66872;63.142;14.482;2023-02-28T15:58:58;1.27;;;0.90;;
16531;SDS011;66872;63.142;14.482;2023-02-28T16:01:34;1.40;;;0.90;;
16531;SDS011;66872;63.142;14.482;2023-02-28T16:04:03;1.33;;;0.80;;
16531;SDS011;66872;63.142;14.482;2023-02-28T16:06:40;1.63;;;1.10;;
16531;SDS011;66872;63.142;14.482;2023-02-28T16:09:11;1.80;;;1.00;;
16531;SDS011;66872;63.142;14.482;2023-02-28T16:11:39;1.40;;;1.00;;
16531;SDS011;66872;63.142;14.482;2023-02-28T16:14:35;1.20;;;0.90;;
16531;SDS011;66872;63.142;14.482;2023-02-28T16:17:05;1.83;;;1.00;;
16531;SDS011;66872;63.142;14.482;2023-02-28T16:19:35;1.40;;;1.00;;
16531;SDS011;66872;63.142;14.482;2023-02-28T16:22:01;2.03;;;1.07;;
16531;SDS011;66872;63.142;14.482;2023-02-28T16:24:26;1.77;;;1.00;;
16531;SDS011;66872;63.142;14.482;2023-02-28T16:26:53;1.00;;;0.90;;
16531;SDS011;66872;63.142;14.482;2023-02-28T16:29:27;1.33;;;1.10;;
16531;SDS011;66872;63.142;14.482;2023-02-28T16:31:56;2.13;;;1.10;;
16531;SDS011;66872;63.142;14.482;2023-02-28T16:34:22;0.77;;;0.73;;
16531;SDS011;66872;63.142;14.482;2023-02-28T16:36:48;1.93;;;1.10;;
16531;SDS011;66872;63.142;14.482;2023-02-28T16:39:14;1.30;;;0.90;;
16531;SDS011;66872;63.142;14.482;2023-02-28T16:41:41;1.53;;;1.07;;
16531;SDS011;66872;63.142;14.482;2023-02-28T16:44:10;1.20;;;0.83;;
16531;SDS011;66872;63.142;14.482;2023-02-28T16:46:44;1.40;;;1.00;;
16531;SDS011;66872;63.142;14.482;2023-02-28T16:49:12;1.07;;;0.93;;
16531;SDS011;66872;63.142;14.482;2023-02-28T16:51:39;1.70;;;1.03;;
16531;SDS011;66872;63.142;14.482;2023-02-28T16:54:04;1.20;;;0.90;;
16531;SDS011;66872;63.142;14.482;2023-02-28T16:56:30;1.60;;;1.00;;
16531;SDS011;66872;63.142;14.482;2023-02-28T16:58:58;1.73;;;0.90;;
16531;SDS011;66872;63.142;14.482;2023-02-28T17:01:26;0.83;;;0.63;;
16531;SDS011;66872;63.142;14.482;2023-02-28T17:03:52;1.67;;;1.20;;
16531;SDS011;66872;63.142;14.482;2023-02-28T17:06:28;1.10;;;0.80;;
16531;SDS011;66872;63.142;14.482;2023-02-28T17:08:55;1.13;;;0.90;;
16531;SDS011;66872;63.142;14.482;2023-02-28T17:11:22;1.70;;;1.10;;
16531;SDS011;66872;63.142;14.482;2023-02-28T17:13:49;0.90;;;0.90;;
16531;SDS011;66872;63.142;14.482;2023-02-28T17:18:45;0.80;;;0.60;;
16531;SDS011;66872;63.142;14.482;2023-02-28T17:21:14;1.70;;;1.17;;